sensor_id;sensor_type;location;lat;lon;timestamp;temperature;humidity
3208;DHT22;1616;52.394;9.756;2022-12-08T00:01:04;4.60;1.30
3208;DHT22;1616;52.394;9.756;2022-12-08T00:03:31;4.60;1.20
3208;DHT22;1616;52.394;9.756;2022-12-08T00:05:57;4.60;1.80
3208;DHT22;1616;52.394;9.756;2022-12-08T00:08:41;4.60;1.20
3208;DHT22;1616;52.394;9.756;2022-12-08T00:11:25;4.60;1.30
3208;DHT22;1616;52.394;9.756;2022-12-08T00:13:51;4.60;1.20
3208;DHT22;1616;52.394;9.756;2022-12-08T00:16:16;4.50;1.10
3208;DHT22;1616;52.394;9.756;2022-12-08T00:18:42;4.50;1.20
3208;DHT22;1616;52.394;9.756;2022-12-08T00:21:07;4.50;1.10
3208;DHT22;1616;52.394;9.756;2022-12-08T00:23:33;4.50;1.20
3208;DHT22;1616;52.394;9.756;2022-12-08T00:26:05;4.50;1.20
3208;DHT22;1616;52.394;9.756;2022-12-08T00:28:32;4.50;1.10
3208;DHT22;1616;52.394;9.756;2022-12-08T00:30:58;4.50;1.10
3208;DHT22;1616;52.394;9.756;2022-12-08T00:33:24;4.50;1.30
3208;DHT22;1616;52.394;9.756;2022-12-08T00:35:52;4.50;1.10
3208;DHT22;1616;52.394;9.756;2022-12-08T00:38:17;4.50;1.20
3208;DHT22;1616;52.394;9.756;2022-12-08T00:40:44;4.50;1.10
3208;DHT22;1616;52.394;9.756;2022-12-08T00:43:11;4.50;1.20
3208;DHT22;1616;52.394;9.756;2022-12-08T00:45:36;4.50;1.10
3208;DHT22;1616;52.394;9.756;2022-12-08T00:48:02;4.50;1.20
3208;DHT22;1616;52.394;9.756;2022-12-08T00:50:28;4.50;1.10
3208;DHT22;1616;52.394;9.756;2022-12-08T00:52:54;4.60;1.20
3208;DHT22;1616;52.394;9.756;2022-12-08T00:55:19;4.60;1.30
3208;DHT22;1616;52.394;9.756;2022-12-08T00:57:45;4.60;1.30
3208;DHT22;1616;52.394;9.756;2022-12-08T01:00:11;4.60;1.30
3208;DHT22;1616;52.394;9.756;2022-12-08T01:02:37;4.60;1.20
3208;DHT22;1616;52.394;9.756;2022-12-08T01:05:02;4.50;1.00
3208;DHT22;1616;52.394;9.756;2022-12-08T01:07:28;4.60;1.00
3208;DHT22;1616;52.394;9.756;2022-12-08T01:09:54;4.50;1.00
3208;DHT22;1616;52.394;9.756;2022-12-08T01:12:22;4.50;1.00
3208;DHT22;1616;52.394;9.756;2022-12-08T01:14:48;4.50;1.00
3208;DHT22;1616;52.394;9.756;2022-12-08T01:17:13;4.50;1.00
3208;DHT22;1616;52.394;9.756;2022-12-08T01:19:39;4.50;1.10
3208;DHT22;1616;52.394;9.756;2022-12-08T01:22:05;4.50;1.00
3208;DHT22;1616;52.394;9.756;2022-12-08T01:24:31;4.50;1.00
3208;DHT22;1616;52.394;9.756;2022-12-08T01:26:56;4.50;1.00
3208;DHT22;1616;52.394;9.756;2022-12-08T01:29:22;4.50;1.20
3208;DHT22;1616;52.394;9.756;2022-12-08T01:31:48;4.50;1.00
3208;DHT22;1616;52.394;9.756;2022-12-08T01:34:14;4.40;1.00
3208;DHT22;1616;52.394;9.756;2022-12-08T01:36:39;4.40;1.00
3208;DHT22;1616;52.394;9.756;2022-12-08T01:39:09;4.40;1.00
3208;DHT22;1616;52.394;9.756;2022-12-08T01:41:37;4.30;1.00
3208;DHT22;1616;52.394;9.756;2022-12-08T01:46:53;4.20;1.00
3208;DHT22;1616;52.394;9.756;2022-12-08T01:49:24;4.20;1.00
3208;DHT22;1616;52.394;9.756;2022-12-08T01:52:08;4.20;1.00
3208;DHT22;1616;52.394;9.756;2022-12-08T01:54:38;4.20;1.00
3208;DHT22;1616;52.394;9.756;2022-12-08T01:57:19;4.10;1.00
3208;DHT22;1616;52.394;9.756;2022-12-08T01:59:53;4.10;1.00
3208;DHT22;1616;52.394;9.756;2022-12-08T02:02:22;4.10;1.00
3208;DHT22;1616;52.394;9.756;2022-12-08T02:04:48;4.10;1.00
3208;DHT22;1616;52.394;9.756;2022-12-08T02:07:15;4.00;1.00
3208;DHT22;1616;52.394;9.756;2022-12-08T02:09:43;4.00;1.00
3208;DHT22;1616;52.394;9.756;2022-12-08T02:12:10;4.00;1.00
3208;DHT22;1616;52.394;9.756;2022-12-08T02:14:35;4.00;1.00
3208;DHT22;1616;52.394;9.756;2022-12-08T02:17:30;4.00;1.00
3208;DHT22;1616;52.394;9.756;2022-12-08T02:20:17;3.90;1.00
3208;DHT22;1616;52.394;9.756;2022-12-08T02:23:05;3.90;1.00
3208;DHT22;1616;52.394;9.756;2022-12-08T02:31:10;3.90;1.00
3208;DHT22;1616;52.394;9.756;2022-12-08T02:36:56;4.00;1.00
3208;DHT22;1616;52.394;9.756;2022-12-08T02:42:18;4.00;1.00
3208;DHT22;1616;52.394;9.756;2022-12-08T02:45:02;4.00;1.00
3208;DHT22;1616;52.394;9.756;2022-12-08T02:47:29;4.00;1.00
3208;DHT22;1616;52.394;9.756;2022-12-08T02:49:57;4.00;1.00
3208;DHT22;1616;52.394;9.756;2022-12-08T02:54:52;4.00;1.00
3208;DHT22;1616;52.394;9.756;2022-12-08T03:00:07;4.10;1.00
3208;DHT22;1616;52.394;9.756;2022-12-08T03:02:49;4.10;1.00
3208;DHT22;1616;52.394;9.756;2022-12-08T03:08:15;4.20;1.00
3208;DHT22;1616;52.394;9.756;2022-12-08T03:10:56;4.20;1.00
3208;DHT22;1616;52.394;9.756;2022-12-08T03:13:48;4.20;1.00
3208;DHT22;1616;52.394;9.756;2022-12-08T03:16:18;4.20;1.00
3208;DHT22;1616;52.394;9.756;2022-12-08T03:18:49;4.20;1.00
3208;DHT22;1616;52.394;9.756;2022-12-08T03:21:18;4.20;1.00
3208;DHT22;1616;52.394;9.756;2022-12-08T03:23:47;4.30;1.00
3208;DHT22;1616;52.394;9.756;2022-12-08T03:26:22;4.30;1.00
3208;DHT22;1616;52.394;9.756;2022-12-08T03:28:49;4.30;1.00
3208;DHT22;1616;52.394;9.756;2022-12-08T03:31:16;4.30;1.00
3208;DHT22;1616;52.394;9.756;2022-12-08T03:33:44;4.30;1.00
3208;DHT22;1616;52.394;9.756;2022-12-08T03:36:14;4.40;1.10
3208;DHT22;1616;52.394;9.756;2022-12-08T03:38:43;4.40;1.00
3208;DHT22;1616;52.394;9.756;2022-12-08T03:41:10;4.40;1.10
3208;DHT22;1616;52.394;9.756;2022-12-08T03:43:50;4.40;1.10
3208;DHT22;1616;52.394;9.756;2022-12-08T03:46:17;4.40;1.00
3208;DHT22;1616;52.394;9.756;2022-12-08T03:48:43;4.40;1.00
3208;DHT22;1616;52.394;9.756;2022-12-08T03:51:09;4.40;1.00
3208;DHT22;1616;52.394;9.756;2022-12-08T03:53:35;4.40;1.00
3208;DHT22;1616;52.394;9.756;2022-12-08T03:56:05;4.40;1.00
3208;DHT22;1616;52.394;9.756;2022-12-08T03:58:38;4.40;1.00
3208;DHT22;1616;52.394;9.756;2022-12-08T04:01:03;4.30;1.00
3208;DHT22;1616;52.394;9.756;2022-12-08T04:03:29;4.40;1.00
3208;DHT22;1616;52.394;9.756;2022-12-08T04:05:55;4.40;1.00
3208;DHT22;1616;52.394;9.756;2022-12-08T04:08:20;4.40;1.20
3208;DHT22;1616;52.394;9.756;2022-12-08T04:10:46;4.40;1.10
3208;DHT22;1616;52.394;9.756;2022-12-08T04:13:12;4.40;1.20
3208;DHT22;1616;52.394;9.756;2022-12-08T04:15:38;4.40;1.10
3208;DHT22;1616;52.394;9.756;2022-12-08T04:18:03;4.40;1.10
3208;DHT22;1616;52.394;9.756;2022-12-08T04:20:29;4.40;1.10
3208;DHT22;1616;52.394;9.756;2022-12-08T04:22:55;4.40;1.10
3208;DHT22;1616;52.394;9.756;2022-12-08T04:25:21;4.40;1.10
3208;DHT22;1616;52.394;9.756;2022-12-08T04:27:47;4.40;1.10
3208;DHT22;1616;52.394;9.756;2022-12-08T04:30:13;4.50;1.10
3208;DHT22;1616;52.394;9.756;2022-12-08T04:32:39;4.40;1.10
3208;DHT22;1616;52.394;9.756;2022-12-08T04:35:05;4.50;1.00
3208;DHT22;1616;52.394;9.756;2022-12-08T04:37:31;4.40;1.00
3208;DHT22;1616;52.394;9.756;2022-12-08T04:39:56;4.50;1.00
3208;DHT22;1616;52.394;9.756;2022-12-08T04:42:22;4.40;1.00
3208;DHT22;1616;52.394;9.756;2022-12-08T04:44:48;4.40;1.00
3208;DHT22;1616;52.394;9.756;2022-12-08T04:47:13;4.40;1.00
3208;DHT22;1616;52.394;9.756;2022-12-08T04:49:39;4.40;1.00
3208;DHT22;1616;52.394;9.756;2022-12-08T04:52:04;4.50;1.20
3208;DHT22;1616;52.394;9.756;2022-12-08T04:54:30;4.40;1.10
3208;DHT22;1616;52.394;9.756;2022-12-08T04:56:55;4.40;1.10
3208;DHT22;1616;52.394;9.756;2022-12-08T04:59:21;4.40;1.10
3208;DHT22;1616;52.394;9.756;2022-12-08T05:01:47;4.40;1.10
3208;DHT22;1616;52.394;9.756;2022-12-08T05:04:12;4.30;1.10
3208;DHT22;1616;52.394;9.756;2022-12-08T05:06:38;4.30;1.00
3208;DHT22;1616;52.394;9.756;2022-12-08T05:09:03;4.30;1.10
3208;DHT22;1616;52.394;9.756;2022-12-08T05:11:29;4.30;1.00
3208;DHT22;1616;52.394;9.756;2022-12-08T05:13:55;4.30;1.10
3208;DHT22;1616;52.394;9.756;2022-12-08T05:16:20;4.30;1.10
3208;DHT22;1616;52.394;9.756;2022-12-08T05:18:46;4.30;1.00
3208;DHT22;1616;52.394;9.756;2022-12-08T05:21:12;4.20;1.00
3208;DHT22;1616;52.394;9.756;2022-12-08T05:23:38;4.30;1.10
3208;DHT22;1616;52.394;9.756;2022-12-08T05:26:04;4.30;1.00
3208;DHT22;1616;52.394;9.756;2022-12-08T05:28:29;4.40;1.10
3208;DHT22;1616;52.394;9.756;2022-12-08T05:30:55;4.40;1.20
3208;DHT22;1616;52.394;9.756;2022-12-08T05:33:21;4.40;1.10
3208;DHT22;1616;52.394;9.756;2022-12-08T05:35:47;4.40;1.10
3208;DHT22;1616;52.394;9.756;2022-12-08T05:38:12;4.40;1.10
3208;DHT22;1616;52.394;9.756;2022-12-08T05:40:39;4.40;1.00
3208;DHT22;1616;52.394;9.756;2022-12-08T05:43:05;4.40;1.10
3208;DHT22;1616;52.394;9.756;2022-12-08T05:45:33;4.50;1.10
3208;DHT22;1616;52.394;9.756;2022-12-08T05:47:59;4.50;1.00
3208;DHT22;1616;52.394;9.756;2022-12-08T05:50:25;4.40;1.10
3208;DHT22;1616;52.394;9.756;2022-12-08T05:52:51;4.40;1.00
3208;DHT22;1616;52.394;9.756;2022-12-08T05:55:16;4.40;1.10
3208;DHT22;1616;52.394;9.756;2022-12-08T05:57:43;4.40;1.10
3208;DHT22;1616;52.394;9.756;2022-12-08T06:00:09;4.40;1.00
3208;DHT22;1616;52.394;9.756;2022-12-08T06:02:35;4.40;1.10
3208;DHT22;1616;52.394;9.756;2022-12-08T06:05:01;4.40;1.10
3208;DHT22;1616;52.394;9.756;2022-12-08T06:07:27;4.40;1.10
3208;DHT22;1616;52.394;9.756;2022-12-08T06:09:52;4.50;1.10
3208;DHT22;1616;52.394;9.756;2022-12-08T06:12:18;4.50;1.20
3208;DHT22;1616;52.394;9.756;2022-12-08T06:14:45;4.50;1.20
3208;DHT22;1616;52.394;9.756;2022-12-08T06:17:12;4.50;1.20
3208;DHT22;1616;52.394;9.756;2022-12-08T06:19:38;4.50;1.20
3208;DHT22;1616;52.394;9.756;2022-12-08T06:22:03;4.50;1.20
3208;DHT22;1616;52.394;9.756;2022-12-08T06:24:29;4.50;1.30
3208;DHT22;1616;52.394;9.756;2022-12-08T06:26:54;4.40;1.10
3208;DHT22;1616;52.394;9.756;2022-12-08T06:29:20;4.40;1.20
3208;DHT22;1616;52.394;9.756;2022-12-08T06:31:46;4.40;1.10
3208;DHT22;1616;52.394;9.756;2022-12-08T06:34:12;4.40;1.10
3208;DHT22;1616;52.394;9.756;2022-12-08T06:36:37;4.40;1.10
3208;DHT22;1616;52.394;9.756;2022-12-08T06:39:04;4.30;1.10
3208;DHT22;1616;52.394;9.756;2022-12-08T06:41:29;4.30;1.10
3208;DHT22;1616;52.394;9.756;2022-12-08T06:43:56;4.30;1.50
3208;DHT22;1616;52.394;9.756;2022-12-08T06:46:22;4.30;1.60
3208;DHT22;1616;52.394;9.756;2022-12-08T06:48:48;4.20;1.40
3208;DHT22;1616;52.394;9.756;2022-12-08T06:51:17;4.20;1.40
3208;DHT22;1616;52.394;9.756;2022-12-08T06:53:45;4.20;1.40
3208;DHT22;1616;52.394;9.756;2022-12-08T06:56:11;4.20;1.40
3208;DHT22;1616;52.394;9.756;2022-12-08T06:58:37;4.20;1.70
3208;DHT22;1616;52.394;9.756;2022-12-08T07:01:08;4.20;1.90
3208;DHT22;1616;52.394;9.756;2022-12-08T07:03:35;4.20;1.80
3208;DHT22;1616;52.394;9.756;2022-12-08T07:06:01;4.20;1.50
3208;DHT22;1616;52.394;9.756;2022-12-08T07:08:27;4.20;1.70
3208;DHT22;1616;52.394;9.756;2022-12-08T07:10:53;4.30;4.10
3208;DHT22;1616;52.394;9.756;2022-12-08T07:13:18;4.40;2.80
3208;DHT22;1616;52.394;9.756;2022-12-08T07:15:44;4.30;1.50
3208;DHT22;1616;52.394;9.756;2022-12-08T07:18:09;4.30;1.30
3208;DHT22;1616;52.394;9.756;2022-12-08T07:20:35;4.20;1.00
3208;DHT22;1616;52.394;9.756;2022-12-08T07:23:01;4.20;1.00
3208;DHT22;1616;52.394;9.756;2022-12-08T07:25:27;4.10;1.00
3208;DHT22;1616;52.394;9.756;2022-12-08T07:27:52;4.00;1.00
3208;DHT22;1616;52.394;9.756;2022-12-08T07:30:19;4.00;1.00
3208;DHT22;1616;52.394;9.756;2022-12-08T07:32:46;4.00;1.00
3208;DHT22;1616;52.394;9.756;2022-12-08T07:35:12;3.90;1.00
3208;DHT22;1616;52.394;9.756;2022-12-08T07:37:38;3.90;1.00
3208;DHT22;1616;52.394;9.756;2022-12-08T07:40:05;3.80;1.50
3208;DHT22;1616;52.394;9.756;2022-12-08T07:42:31;3.80;1.50
3208;DHT22;1616;52.394;9.756;2022-12-08T07:44:56;3.80;1.60
3208;DHT22;1616;52.394;9.756;2022-12-08T07:47:22;3.80;1.60
3208;DHT22;1616;52.394;9.756;2022-12-08T07:49:48;3.80;1.90
3208;DHT22;1616;52.394;9.756;2022-12-08T07:52:14;3.80;2.10
3208;DHT22;1616;52.394;9.756;2022-12-08T07:54:39;3.80;2.20
3208;DHT22;1616;52.394;9.756;2022-12-08T07:57:05;3.80;2.30
3208;DHT22;1616;52.394;9.756;2022-12-08T07:59:31;3.80;2.50
3208;DHT22;1616;52.394;9.756;2022-12-08T08:01:57;3.80;2.70
3208;DHT22;1616;52.394;9.756;2022-12-08T08:04:23;3.80;2.70
3208;DHT22;1616;52.394;9.756;2022-12-08T08:06:48;3.90;3.00
3208;DHT22;1616;52.394;9.756;2022-12-08T08:09:14;3.90;2.90
3208;DHT22;1616;52.394;9.756;2022-12-08T08:11:39;3.90;3.00
3208;DHT22;1616;52.394;9.756;2022-12-08T08:14:05;4.00;3.10
3208;DHT22;1616;52.394;9.756;2022-12-08T08:16:31;4.00;2.90
3208;DHT22;1616;52.394;9.756;2022-12-08T08:18:57;4.10;3.10
3208;DHT22;1616;52.394;9.756;2022-12-08T08:21:23;4.00;3.30
3208;DHT22;1616;52.394;9.756;2022-12-08T08:23:48;4.10;3.40
3208;DHT22;1616;52.394;9.756;2022-12-08T08:26:14;4.10;3.40
3208;DHT22;1616;52.394;9.756;2022-12-08T08:28:40;4.10;3.30
3208;DHT22;1616;52.394;9.756;2022-12-08T08:31:06;4.20;3.70
3208;DHT22;1616;52.394;9.756;2022-12-08T08:33:32;4.20;3.70
3208;DHT22;1616;52.394;9.756;2022-12-08T08:35:58;4.20;3.60
3208;DHT22;1616;52.394;9.756;2022-12-08T08:38:24;4.20;3.50
3208;DHT22;1616;52.394;9.756;2022-12-08T08:40:50;4.30;3.80
3208;DHT22;1616;52.394;9.756;2022-12-08T08:43:16;4.30;4.00
3208;DHT22;1616;52.394;9.756;2022-12-08T08:45:58;4.30;3.70
3208;DHT22;1616;52.394;9.756;2022-12-08T08:48:25;4.30;3.60
3208;DHT22;1616;52.394;9.756;2022-12-08T08:50:52;4.30;2.90
3208;DHT22;1616;52.394;9.756;2022-12-08T08:53:18;4.30;3.00
3208;DHT22;1616;52.394;9.756;2022-12-08T08:55:44;4.30;3.20
3208;DHT22;1616;52.394;9.756;2022-12-08T08:58:11;4.30;3.40
3208;DHT22;1616;52.394;9.756;2022-12-08T09:00:36;4.30;3.50
3208;DHT22;1616;52.394;9.756;2022-12-08T09:03:02;4.30;3.60
3208;DHT22;1616;52.394;9.756;2022-12-08T09:05:28;4.40;3.60
3208;DHT22;1616;52.394;9.756;2022-12-08T09:07:54;4.40;3.70
3208;DHT22;1616;52.394;9.756;2022-12-08T09:10:20;4.40;3.50
3208;DHT22;1616;52.394;9.756;2022-12-08T09:12:46;4.40;3.60
3208;DHT22;1616;52.394;9.756;2022-12-08T09:15:11;4.40;3.80
3208;DHT22;1616;52.394;9.756;2022-12-08T09:17:37;4.40;3.90
3208;DHT22;1616;52.394;9.756;2022-12-08T09:20:05;4.50;4.20
3208;DHT22;1616;52.394;9.756;2022-12-08T09:22:30;4.50;4.40
3208;DHT22;1616;52.394;9.756;2022-12-08T09:24:56;4.50;4.40
3208;DHT22;1616;52.394;9.756;2022-12-08T09:27:22;4.60;4.60
3208;DHT22;1616;52.394;9.756;2022-12-08T09:29:47;4.60;4.80
3208;DHT22;1616;52.394;9.756;2022-12-08T09:32:13;4.60;5.00
3208;DHT22;1616;52.394;9.756;2022-12-08T09:34:38;4.70;4.90
3208;DHT22;1616;52.394;9.756;2022-12-08T09:37:04;4.70;4.70
3208;DHT22;1616;52.394;9.756;2022-12-08T09:39:30;4.80;4.80
3208;DHT22;1616;52.394;9.756;2022-12-08T09:42:04;4.80;4.40
3208;DHT22;1616;52.394;9.756;2022-12-08T09:44:46;4.70;4.30
3208;DHT22;1616;52.394;9.756;2022-12-08T09:47:21;4.80;4.30
3208;DHT22;1616;52.394;9.756;2022-12-08T09:52:35;4.70;3.60
3208;DHT22;1616;52.394;9.756;2022-12-08T09:55:27;4.70;3.70
3208;DHT22;1616;52.394;9.756;2022-12-08T09:58:02;4.80;4.20
3208;DHT22;1616;52.394;9.756;2022-12-08T10:00:29;4.80;4.60
3208;DHT22;1616;52.394;9.756;2022-12-08T10:02:55;4.80;4.40
3208;DHT22;1616;52.394;9.756;2022-12-08T10:05:22;4.80;4.90
3208;DHT22;1616;52.394;9.756;2022-12-08T10:08:11;4.90;4.90
3208;DHT22;1616;52.394;9.756;2022-12-08T10:10:46;4.90;4.80
3208;DHT22;1616;52.394;9.756;2022-12-08T10:13:22;5.00;5.00
3208;DHT22;1616;52.394;9.756;2022-12-08T10:16:18;5.00;5.30
3208;DHT22;1616;52.394;9.756;2022-12-08T10:18:56;5.00;5.20
3208;DHT22;1616;52.394;9.756;2022-12-08T10:21:26;5.10;5.20
3208;DHT22;1616;52.394;9.756;2022-12-08T10:23:57;5.10;4.70
3208;DHT22;1616;52.394;9.756;2022-12-08T10:26:26;5.20;4.60
3208;DHT22;1616;52.394;9.756;2022-12-08T10:28:52;5.20;4.60
3208;DHT22;1616;52.394;9.756;2022-12-08T10:31:21;5.20;4.10
3208;DHT22;1616;52.394;9.756;2022-12-08T10:33:51;5.20;3.50
3208;DHT22;1616;52.394;9.756;2022-12-08T10:36:19;5.20;2.60
3208;DHT22;1616;52.394;9.756;2022-12-08T10:38:44;5.10;2.60
3208;DHT22;1616;52.394;9.756;2022-12-08T10:43:42;5.10;3.00
3208;DHT22;1616;52.394;9.756;2022-12-08T10:46:27;5.10;3.40
3208;DHT22;1616;52.394;9.756;2022-12-08T10:51:39;5.20;4.00
3208;DHT22;1616;52.394;9.756;2022-12-08T10:54:28;5.30;3.30
3208;DHT22;1616;52.394;9.756;2022-12-08T10:56:56;5.60;8.70
3208;DHT22;1616;52.394;9.756;2022-12-08T10:59:22;6.20;15.00
3208;DHT22;1616;52.394;9.756;2022-12-08T11:01:52;6.60;10.70
3208;DHT22;1616;52.394;9.756;2022-12-08T11:04:30;6.70;6.40
3208;DHT22;1616;52.394;9.756;2022-12-08T11:06:58;6.60;2.90
3208;DHT22;1616;52.394;9.756;2022-12-08T11:09:41;6.50;2.40
3208;DHT22;1616;52.394;9.756;2022-12-08T11:12:19;6.40;1.90
3208;DHT22;1616;52.394;9.756;2022-12-08T11:17:13;6.20;1.50
3208;DHT22;1616;52.394;9.756;2022-12-08T11:19:45;6.20;1.40
3208;DHT22;1616;52.394;9.756;2022-12-08T11:25:15;6.10;1.00
3208;DHT22;1616;52.394;9.756;2022-12-08T11:27:44;6.00;1.00
3208;DHT22;1616;52.394;9.756;2022-12-08T11:30:19;6.00;1.20
3208;DHT22;1616;52.394;9.756;2022-12-08T11:32:48;6.00;1.00
3208;DHT22;1616;52.394;9.756;2022-12-08T11:35:28;5.90;1.00
3208;DHT22;1616;52.394;9.756;2022-12-08T11:37:57;5.80;1.00
3208;DHT22;1616;52.394;9.756;2022-12-08T11:40:34;5.80;1.00
3208;DHT22;1616;52.394;9.756;2022-12-08T11:45:47;5.70;1.00
3208;DHT22;1616;52.394;9.756;2022-12-08T11:48:22;5.70;1.00
3208;DHT22;1616;52.394;9.756;2022-12-08T11:56:18;5.70;1.00
3208;DHT22;1616;52.394;9.756;2022-12-08T12:01:43;5.70;1.00
3208;DHT22;1616;52.394;9.756;2022-12-08T12:04:38;5.80;1.10
3208;DHT22;1616;52.394;9.756;2022-12-08T12:07:24;5.80;1.50
3208;DHT22;1616;52.394;9.756;2022-12-08T12:18:43;5.90;1.00
3208;DHT22;1616;52.394;9.756;2022-12-08T12:24:04;5.90;1.00
3208;DHT22;1616;52.394;9.756;2022-12-08T12:26:33;5.90;1.00
3208;DHT22;1616;52.394;9.756;2022-12-08T12:29:23;5.90;1.00
3208;DHT22;1616;52.394;9.756;2022-12-08T12:31:57;5.80;1.00
3208;DHT22;1616;52.394;9.756;2022-12-08T12:34:49;5.80;1.00
3208;DHT22;1616;52.394;9.756;2022-12-08T12:37:20;5.70;1.00
3208;DHT22;1616;52.394;9.756;2022-12-08T12:39:57;5.70;1.00
3208;DHT22;1616;52.394;9.756;2022-12-08T12:42:39;5.70;1.00
3208;DHT22;1616;52.394;9.756;2022-12-08T12:56:02;5.70;1.00
3208;DHT22;1616;52.394;9.756;2022-12-08T13:03:46;5.70;1.00
3208;DHT22;1616;52.394;9.756;2022-12-08T13:06:14;5.70;1.00
3208;DHT22;1616;52.394;9.756;2022-12-08T13:08:51;5.70;1.00
3208;DHT22;1616;52.394;9.756;2022-12-08T13:11:17;5.70;1.00
3208;DHT22;1616;52.394;9.756;2022-12-08T13:14:01;5.60;1.00
3208;DHT22;1616;52.394;9.756;2022-12-08T13:16:33;5.60;1.00
3208;DHT22;1616;52.394;9.756;2022-12-08T13:19:03;5.60;1.00
3208;DHT22;1616;52.394;9.756;2022-12-08T13:21:34;5.60;1.00
3208;DHT22;1616;52.394;9.756;2022-12-08T13:26:47;5.60;1.00
3208;DHT22;1616;52.394;9.756;2022-12-08T13:29:21;5.60;1.00
3208;DHT22;1616;52.394;9.756;2022-12-08T13:34:44;5.60;1.00
3208;DHT22;1616;52.394;9.756;2022-12-08T13:37:29;5.60;1.00
3208;DHT22;1616;52.394;9.756;2022-12-08T13:42:41;5.70;1.00
3208;DHT22;1616;52.394;9.756;2022-12-08T13:50:42;5.60;1.00
3208;DHT22;1616;52.394;9.756;2022-12-08T13:53:28;5.50;1.00
3208;DHT22;1616;52.394;9.756;2022-12-08T13:55:59;5.50;1.00
3208;DHT22;1616;52.394;9.756;2022-12-08T13:58:31;5.50;1.00
3208;DHT22;1616;52.394;9.756;2022-12-08T14:03:53;5.40;1.00
3208;DHT22;1616;52.394;9.756;2022-12-08T14:06:33;5.40;1.00
3208;DHT22;1616;52.394;9.756;2022-12-08T14:09:02;5.40;1.00
3208;DHT22;1616;52.394;9.756;2022-12-08T14:11:38;5.30;1.00
3208;DHT22;1616;52.394;9.756;2022-12-08T14:14:05;5.30;1.00
3208;DHT22;1616;52.394;9.756;2022-12-08T14:16:40;5.30;1.00
3208;DHT22;1616;52.394;9.756;2022-12-08T14:19:21;5.20;1.00
3208;DHT22;1616;52.394;9.756;2022-12-08T14:22:14;5.20;1.00
3208;DHT22;1616;52.394;9.756;2022-12-08T14:24:39;5.20;1.00
3208;DHT22;1616;52.394;9.756;2022-12-08T14:27:13;5.10;1.00
3208;DHT22;1616;52.394;9.756;2022-12-08T14:30:00;5.10;1.00
3208;DHT22;1616;52.394;9.756;2022-12-08T14:37:41;5.10;1.00
3208;DHT22;1616;52.394;9.756;2022-12-08T14:40:22;5.10;1.00
3208;DHT22;1616;52.394;9.756;2022-12-08T14:42:53;5.10;1.00
3208;DHT22;1616;52.394;9.756;2022-12-08T14:45:20;5.40;2.60
3208;DHT22;1616;52.394;9.756;2022-12-08T14:47:46;5.50;1.00
3208;DHT22;1616;52.394;9.756;2022-12-08T14:50:42;5.50;1.00
3208;DHT22;1616;52.394;9.756;2022-12-08T14:53:14;5.40;1.00
3208;DHT22;1616;52.394;9.756;2022-12-08T14:55:42;5.30;1.00
3208;DHT22;1616;52.394;9.756;2022-12-08T14:58:28;5.10;1.00
3208;DHT22;1616;52.394;9.756;2022-12-08T15:00:56;5.00;1.00
3208;DHT22;1616;52.394;9.756;2022-12-08T15:03:24;4.90;1.00
3208;DHT22;1616;52.394;9.756;2022-12-08T15:05:54;4.80;1.00
3208;DHT22;1616;52.394;9.756;2022-12-08T15:08:20;4.70;1.00
3208;DHT22;1616;52.394;9.756;2022-12-08T15:11:26;4.70;1.00
3208;DHT22;1616;52.394;9.756;2022-12-08T15:13:52;4.60;1.00
3208;DHT22;1616;52.394;9.756;2022-12-08T15:21:41;4.50;1.00
3208;DHT22;1616;52.394;9.756;2022-12-08T15:24:10;4.40;1.00
3208;DHT22;1616;52.394;9.756;2022-12-08T15:26:45;4.40;1.00
3208;DHT22;1616;52.394;9.756;2022-12-08T15:31:42;4.30;1.00
3208;DHT22;1616;52.394;9.756;2022-12-08T15:34:08;4.30;1.00
3208;DHT22;1616;52.394;9.756;2022-12-08T15:36:33;4.30;1.00
3208;DHT22;1616;52.394;9.756;2022-12-08T15:38:59;4.30;1.00
3208;DHT22;1616;52.394;9.756;2022-12-08T15:41:25;4.20;1.00
3208;DHT22;1616;52.394;9.756;2022-12-08T15:43:52;4.20;1.00
3208;DHT22;1616;52.394;9.756;2022-12-08T15:46:17;4.20;1.00
3208;DHT22;1616;52.394;9.756;2022-12-08T15:48:43;4.10;1.00
3208;DHT22;1616;52.394;9.756;2022-12-08T15:51:09;4.00;1.00
3208;DHT22;1616;52.394;9.756;2022-12-08T15:53:35;4.10;1.00
3208;DHT22;1616;52.394;9.756;2022-12-08T15:56:04;4.10;1.00
3208;DHT22;1616;52.394;9.756;2022-12-08T15:58:31;4.20;1.00
3208;DHT22;1616;52.394;9.756;2022-12-08T16:00:56;4.20;1.00
3208;DHT22;1616;52.394;9.756;2022-12-08T16:03:27;4.20;1.00
3208;DHT22;1616;52.394;9.756;2022-12-08T16:05:54;4.20;1.00
3208;DHT22;1616;52.394;9.756;2022-12-08T16:08:21;4.30;1.00
3208;DHT22;1616;52.394;9.756;2022-12-08T16:10:47;4.30;1.00
3208;DHT22;1616;52.394;9.756;2022-12-08T16:13:14;4.30;1.00
3208;DHT22;1616;52.394;9.756;2022-12-08T16:16:00;4.30;1.00
3208;DHT22;1616;52.394;9.756;2022-12-08T16:18:30;4.30;1.00
3208;DHT22;1616;52.394;9.756;2022-12-08T16:20:56;4.30;1.00
3208;DHT22;1616;52.394;9.756;2022-12-08T16:23:21;4.20;1.00
3208;DHT22;1616;52.394;9.756;2022-12-08T16:25:47;4.20;1.00
3208;DHT22;1616;52.394;9.756;2022-12-08T16:28:12;4.10;1.00
3208;DHT22;1616;52.394;9.756;2022-12-08T16:30:38;4.00;1.00
3208;DHT22;1616;52.394;9.756;2022-12-08T16:33:04;4.00;1.00
3208;DHT22;1616;52.394;9.756;2022-12-08T16:35:30;3.90;1.00
3208;DHT22;1616;52.394;9.756;2022-12-08T16:37:56;3.80;1.00
3208;DHT22;1616;52.394;9.756;2022-12-08T16:40:22;3.80;1.00
3208;DHT22;1616;52.394;9.756;2022-12-08T16:42:48;3.70;1.00
3208;DHT22;1616;52.394;9.756;2022-12-08T16:45:28;3.60;1.00
3208;DHT22;1616;52.394;9.756;2022-12-08T16:47:58;3.50;1.00
3208;DHT22;1616;52.394;9.756;2022-12-08T16:50:26;3.40;1.00
3208;DHT22;1616;52.394;9.756;2022-12-08T16:53:00;3.40;1.00
3208;DHT22;1616;52.394;9.756;2022-12-08T16:55:26;3.30;1.00
3208;DHT22;1616;52.394;9.756;2022-12-08T16:57:52;3.30;1.00
3208;DHT22;1616;52.394;9.756;2022-12-08T17:00:20;3.20;1.00
3208;DHT22;1616;52.394;9.756;2022-12-08T17:02:47;3.20;1.00
3208;DHT22;1616;52.394;9.756;2022-12-08T17:05:14;3.20;1.00
3208;DHT22;1616;52.394;9.756;2022-12-08T17:07:42;3.20;1.00
3208;DHT22;1616;52.394;9.756;2022-12-08T17:10:09;3.10;1.00
3208;DHT22;1616;52.394;9.756;2022-12-08T17:12:35;3.10;1.00
3208;DHT22;1616;52.394;9.756;2022-12-08T17:15:03;3.00;1.00
3208;DHT22;1616;52.394;9.756;2022-12-08T17:17:30;3.00;1.00
3208;DHT22;1616;52.394;9.756;2022-12-08T17:19:55;3.00;1.00
3208;DHT22;1616;52.394;9.756;2022-12-08T17:22:21;2.90;1.00
3208;DHT22;1616;52.394;9.756;2022-12-08T17:24:47;3.00;1.00
3208;DHT22;1616;52.394;9.756;2022-12-08T17:27:13;2.90;1.00
3208;DHT22;1616;52.394;9.756;2022-12-08T17:29:39;2.90;1.00
3208;DHT22;1616;52.394;9.756;2022-12-08T17:32:05;2.90;1.00
3208;DHT22;1616;52.394;9.756;2022-12-08T17:34:31;2.90;1.00
3208;DHT22;1616;52.394;9.756;2022-12-08T17:36:57;2.90;1.00
3208;DHT22;1616;52.394;9.756;2022-12-08T17:39:23;2.90;1.00
3208;DHT22;1616;52.394;9.756;2022-12-08T17:41:48;2.80;1.00
3208;DHT22;1616;52.394;9.756;2022-12-08T17:44:17;2.80;1.00
3208;DHT22;1616;52.394;9.756;2022-12-08T17:46:43;2.80;1.00
3208;DHT22;1616;52.394;9.756;2022-12-08T17:49:10;2.90;1.00
3208;DHT22;1616;52.394;9.756;2022-12-08T17:51:36;2.90;1.00
3208;DHT22;1616;52.394;9.756;2022-12-08T17:54:03;3.00;1.00
3208;DHT22;1616;52.394;9.756;2022-12-08T17:56:29;3.10;1.00
3208;DHT22;1616;52.394;9.756;2022-12-08T17:58:55;3.10;1.00
3208;DHT22;1616;52.394;9.756;2022-12-08T18:01:22;3.20;1.00
3208;DHT22;1616;52.394;9.756;2022-12-08T18:03:47;3.30;1.00
3208;DHT22;1616;52.394;9.756;2022-12-08T18:06:13;3.30;1.00
3208;DHT22;1616;52.394;9.756;2022-12-08T18:08:39;3.30;1.00
3208;DHT22;1616;52.394;9.756;2022-12-08T18:11:11;3.30;1.00
3208;DHT22;1616;52.394;9.756;2022-12-08T18:13:37;3.30;1.00
3208;DHT22;1616;52.394;9.756;2022-12-08T18:16:03;3.20;1.00
3208;DHT22;1616;52.394;9.756;2022-12-08T18:18:29;3.10;1.00
3208;DHT22;1616;52.394;9.756;2022-12-08T18:20:55;3.10;1.00
3208;DHT22;1616;52.394;9.756;2022-12-08T18:23:20;3.00;1.00
3208;DHT22;1616;52.394;9.756;2022-12-08T18:25:46;2.90;1.00
3208;DHT22;1616;52.394;9.756;2022-12-08T18:28:12;2.90;1.00
3208;DHT22;1616;52.394;9.756;2022-12-08T18:30:39;2.80;1.00